Time;durP1;ratioP1;P1;durP2;ratioP2;P2;SDS_P1;SDS_P2;PMS_P1;PMS_P2;Temp;Humidity;BMP_temperature;BMP_pressure;BME280_temperature;BME280_humidity;BME280_pressure;Samples;Min_cycle;Max_cycle;Signal;HPM_P1;HPM_P2
2022/04/18 00:00:32;;;;;;;3.22;2.58;;;;;;;-0.29;99.02;93212.56;2106855;28;20020;-80
2022/04/18 00:01:33;;;;;;;3.10;2.80;;;;;;;-0.14;98.38;93214.34;2106197;28;20063;-81
2022/04/18 00:02:34;;;;;;;3.55;2.45;;;;;;;-0.10;97.60;93211.81;2096972;28;20031;-81
2022/04/18 00:03:36;;;;;;;4.85;2.95;;;;;;;-0.21;99.89;93211.59;2097346;28;20012;-80
2022/04/18 00:04:37;;;;;;;3.88;2.63;;;;;;;-0.22;99.09;93207.47;2097634;28;20062;-80
2022/04/18 00:05:39;;;;;;;5.03;2.65;;;;;;;-0.37;99.90;93209.03;2097125;28;20157;-81
2022/04/18 00:06:40;;;;;;;2.80;2.60;;;;;;;-0.48;100.00;93215.94;2090263;28;20029;-80
2022/04/18 00:07:41;;;;;;;3.80;2.85;;;;;;;-0.37;100.00;93216.16;2106931;28;20071;-81
2022/04/18 00:08:42;;;;;;;4.13;2.58;;;;;;;-0.34;100.00;93207.59;2115191;28;20031;-80
2022/04/18 00:09:43;;;;;;;4.28;2.42;;;;;;;-0.38;99.80;93204.13;2106538;28;20035;-80
2022/04/18 00:10:44;;;;;;;4.28;3.25;;;;;;;-0.38;99.91;93206.75;2098421;28;20017;-79
2022/04/18 00:11:45;;;;;;;3.28;2.97;;;;;;;-0.30;99.85;93200.53;2106603;28;20082;-81
2022/04/18 00:12:46;;;;;;;2.38;2.17;;;;;;;-0.34;99.27;93204.97;2106394;28;20539;-80
2022/04/18 00:13:47;;;;;;;3.08;2.78;;;;;;;-0.38;100.00;93204.88;2096889;28;20166;-81
2022/04/18 00:14:48;;;;;;;3.55;2.90;;;;;;;-0.49;100.00;93197.88;2098260;28;20074;-80
2022/04/18 00:15:49;;;;;;;2.60;2.40;;;;;;;-0.37;100.00;93203.78;2098316;28;20107;-80
2022/04/18 00:16:50;;;;;;;5.88;2.90;;;;;;;-0.38;100.00;93209.38;2090027;28;20367;-81
2022/04/18 00:17:51;;;;;;;4.15;2.55;;;;;;;-0.36;100.00;93199.28;2090112;28;20115;-80
2022/04/18 00:18:52;;;;;;;3.40;2.60;;;;;;;-0.33;98.67;93195.97;2098428;28;20025;-80
2022/04/18 00:19:54;;;;;;;3.08;2.40;;;;;;;-0.33;98.95;93195.97;2098435;28;20025;-81
2022/04/18 00:20:55;;;;;;;3.65;2.38;;;;;;;-0.35;99.67;93206.03;2098332;28;20020;-82
2022/04/18 00:21:57;;;;;;;3.17;2.67;;;;;;;-0.37;100.00;93200.38;2090106;28;20025;-79
2022/04/18 00:22:58;;;;;;;4.90;2.80;;;;;;;-0.21;98.99;93195.09;2090233;28;20071;-81
2022/04/18 00:23:59;;;;;;;4.53;2.83;;;;;;;-0.34;99.74;93202.34;2098324;28;20075;-80
2022/04/18 00:24:59;;;;;;;2.60;2.35;;;;;;;-0.37;99.68;93193.28;2106457;28;20115;-81
2022/04/18 00:26:03;;;;;;;3.90;3.08;;;;;;;-0.47;100.00;93196.44;2105678;28;20066;-80
2022/04/18 00:27:04;;;;;;;3.53;2.30;;;;;;;-0.27;99.65;93200.59;2112862;28;20020;-80
2022/04/18 00:28:05;;;;;;;4.35;2.78;;;;;;;-0.37;97.36;93198.53;2098319;28;20024;-80
2022/04/18 00:29:06;;;;;;;3.03;2.67;;;;;;;-0.53;100.00;93198.59;2098424;28;20021;-80
2022/04/18 00:30:08;;;;;;;4.68;3.00;;;;;;;-0.49;100.00;93200.50;2098418;28;20020;-80
2022/04/18 00:31:09;;;;;;;2.50;2.30;;;;;;;-0.47;99.52;93203.56;2098136;28;20496;-80
2022/04/18 00:32:10;;;;;;;5.07;3.50;;;;;;;-0.36;99.32;93191.41;2106625;28;20023;-80
2022/04/18 00:33:11;;;;;;;3.17;2.60;;;;;;;-0.53;99.98;93195.19;2114804;28;20021;-81
2022/04/18 00:34:14;;;;;;;3.97;2.97;;;;;;;-0.60;100.00;93193.19;2089962;28;20497;-81
2022/04/18 00:35:15;;;;;;;3.47;2.42;;;;;;;-0.49;100.00;93201.25;2098501;28;20107;-81
2022/04/18 00:36:16;;;;;;;4.68;2.88;;;;;;;-0.43;99.34;93196.53;2098088;28;20027;-81
2022/04/18 00:37:18;;;;;;;2.65;2.45;;;;;;;-0.53;99.72;93193.34;2098005;28;20052;-79
2022/04/18 00:38:19;;;;;;;3.33;2.50;;;;;;;-0.55;99.76;93190.28;2097852;28;20028;-80
2022/04/18 00:39:21;;;;;;;3.25;2.40;;;;;;;-0.57;100.00;93189.09;2098250;28;20020;-80
2022/04/18 00:40:22;;;;;;;3.28;2.70;;;;;;;-0.59;100.00;93186.81;2098331;28;20158;-79
2022/04/18 00:41:23;;;;;;;2.95;2.65;;;;;;;-0.58;100.00;93196.22;2089929;28;20131;-80
2022/04/18 00:42:25;;;;;;;3.13;2.83;;;;;;;-0.52;99.86;93191.47;2089814;28;20017;-80
2022/04/18 00:43:44;;;;;;;2.55;2.35;;;;;;;-0.54;99.33;93183.91;2098309;28;20074;-81
2022/04/18 00:44:45;;;;;;;3.58;2.67;;;;;;;-0.68;100.00;93188.13;2106348;28;20027;-80
2022/04/18 00:45:46;;;;;;;3.75;2.55;;;;;;;-0.67;100.00;93187.00;2106350;28;20016;-80
2022/04/18 00:46:53;;;;;;;4.53;3.22;;;;;;;-0.65;100.00;93197.94;2089822;28;20029;-82
2022/04/18 00:47:54;;;;;;;4.70;2.80;;;;;;;-0.65;100.00;93184.81;2091127;28;20021;-81
2022/04/18 00:48:55;;;;;;;3.40;2.50;;;;;;;-0.60;100.00;93181.91;2097382;28;20812;-80
2022/04/18 00:49:56;;;;;;;3.72;2.60;;;;;;;-0.46;99.61;93181.44;2104718;28;20048;-79
2022/04/18 00:50:57;;;;;;;2.75;2.47;;;;;;;-0.61;99.85;93175.91;2105741;28;20020;-80
2022/04/18 00:51:59;;;;;;;4.40;2.78;;;;;;;-0.59;100.00;93176.31;2097330;28;20033;-80
2022/04/18 00:53:01;;;;;;;5.15;2.47;;;;;;;-0.64;100.00;93179.22;2089087;28;20115;-81
2022/04/18 00:54:02;;;;;;;3.00;2.70;;;;;;;-0.58;99.81;93174.44;2090133;28;20585;-80
2022/04/18 00:55:04;;;;;;;3.03;2.58;;;;;;;-0.58;99.57;93174.44;2098096;28;20052;-81
2022/04/18 00:56:06;;;;;;;3.33;2.75;;;;;;;-0.68;99.86;93173.13;2097111;28;20021;-82
2022/04/18 00:57:09;;;;;;;4.03;2.60;;;;;;;-0.69;100.00;93171.63;2089958;28;20379;-81
2022/04/18 00:58:10;;;;;;;3.08;2.30;;;;;;;-0.67;100.00;93172.03;2090121;28;20029;-80
2022/04/18 00:59:11;;;;;;;5.40;2.80;;;;;;;-0.73;100.00;93168.16;2098103;28;20021;-80
2022/04/18 01:00:12;;;;;;;2.60;2.40;;;;;;;-0.85;100.00;93171.66;2097931;28;20485;-79
2022/04/18 01:01:14;;;;;;;3.33;2.30;;;;;;;-0.88;100.00;93166.31;2097888;28;20085;-80
2022/04/18 01:02:16;;;;;;;4.38;2.72;;;;;;;-0.81;100.00;93169.84;2105756;28;20522;-80
2022/04/18 01:03:19;;;;;;;3.80;2.90;;;;;;;-0.78;100.00;93173.69;2106473;28;20023;-80
2022/04/18 01:04:20;;;;;;;3.30;2.83;;;;;;;-0.94;100.00;93168.44;2098002;28;20024;-80
2022/04/18 01:05:21;;;;;;;2.83;2.60;;;;;;;-0.78;100.00;93163.19;2097836;28;20094;-81
2022/04/18 01:06:22;;;;;;;3.90;2.78;;;;;;;-0.80;100.00;93168.75;2114596;28;20047;-80
2022/04/18 01:07:23;;;;;;;3.45;2.58;;;;;;;-0.78;100.00;93157.94;2097862;28;20123;-80
2022/04/18 01:08:25;;;;;;;4.53;2.92;;;;;;;-0.91;100.00;93170.41;2089690;28;20024;-81
2022/04/18 01:09:26;;;;;;;3.85;3.30;;;;;;;-0.86;100.00;93162.25;2089959;28;20513;-81
2022/04/18 01:10:27;;;;;;;3.72;2.58;;;;;;;-0.91;100.00;93164.41;2089672;28;20021;-81
2022/04/18 01:11:28;;;;;;;2.97;2.67;;;;;;;-0.94;100.00;93163.19;2097758;28;20045;-81
2022/04/18 01:12:29;;;;;;;2.97;2.67;;;;;;;-0.95;100.00;93158.31;2106107;28;20052;-80
2022/04/18 01:13:30;;;;;;;3.90;2.35;;;;;;;-0.94;100.00;93163.19;2097111;28;20040;-80
2022/04/18 01:14:30;;;;;;;4.78;2.70;;;;;;;-0.86;100.00;93149.13;2097422;28;20020;-80
2022/04/18 01:15:32;;;;;;;4.03;3.10;;;;;;;-0.94;100.00;93154.56;2097865;28;20024;-81
2022/04/18 01:16:33;;;;;;;5.43;3.00;;;;;;;-0.94;100.00;93147.47;2097832;28;20031;-81
2022/04/18 01:17:34;;;;;;;4.03;2.70;;;;;;;-0.96;100.00;93154.16;2089761;28;20083;-80
2022/04/18 01:18:35;;;;;;;3.60;2.90;;;;;;;-0.82;100.00;93151.84;2089522;28;20025;-81
2022/04/18 01:19:36;;;;;;;3.00;2.70;;;;;;;-0.92;100.00;93145.28;2089709;28;20167;-80
2022/04/18 01:20:41;;;;;;;4.05;2.65;;;;;;;-0.94;100.00;93151.94;2097727;28;20028;-79
2022/04/18 01:21:42;;;;;;;3.72;2.75;;;;;;;-0.95;100.00;93148.56;2098249;28;20450;-80
2022/04/18 01:22:45;;;;;;;4.38;2.35;;;;;;;-0.91;100.00;93146.78;2106035;28;20024;-79
2022/04/18 01:23:47;;;;;;;3.22;2.75;;;;;;;-0.88;100.00;93142.69;2098212;28;20020;-80
2022/04/18 01:28:58;;;;;;;3.92;2.95;;;;;;;-0.91;100.00;93141.53;2100648;28;20504;-81
2022/04/18 01:29:59;;;;;;;;;;;;;;;-0.90;100.00;93139.69;2091343;28;20465;-80
2022/04/18 01:31:00;;;;;;;2.97;2.63;;;;;;;-0.93;100.00;93137.72;2089683;28;19909;-80
2022/04/18 01:32:01;;;;;;;2.67;2.28;;;;;;;-0.84;99.99;93133.81;2089477;28;20052;-79
2022/04/18 01:33:03;;;;;;;2.78;2.50;;;;;;;-0.96;100.00;93135.81;2095326;28;20032;-80
2022/04/18 01:34:06;;;;;;;3.20;2.50;;;;;;;-0.98;100.00;93130.13;2089448;28;20017;-80
2022/04/18 01:35:07;;;;;;;4.18;2.53;;;;;;;-1.05;100.00;93136.00;2098219;28;20111;-80
2022/04/18 01:36:08;;;;;;;4.30;2.80;;;;;;;-0.94;100.00;93130.97;2097616;28;20405;-80
2022/04/18 01:37:08;;;;;;;2.58;2.38;;;;;;;-0.98;100.00;93130.88;2089460;28;20028;-79
2022/04/18 01:38:09;;;;;;;3.47;2.83;;;;;;;-0.97;100.00;93124.53;2105374;28;20098;-80
2022/04/18 01:39:10;;;;;;;4.75;2.80;;;;;;;-0.99;100.00;93128.59;2106022;28;20016;-79
2022/04/18 01:40:12;;;;;;;2.95;2.75;;;;;;;-0.84;100.00;93125.94;2106051;28;20027;-80
2022/04/18 01:41:13;;;;;;;2.97;2.60;;;;;;;-0.89;100.00;93131.44;2105944;28;20028;-80
2022/04/18 01:42:14;;;;;;;5.38;2.60;;;;;;;-1.09;100.00;93128.03;2097714;28;20063;-81
2022/04/18 01:43:15;;;;;;;3.67;2.60;;;;;;;-1.06;100.00;93122.09;2097527;28;20048;-80
2022/04/18 01:44:16;;;;;;;6.18;2.60;;;;;;;-0.94;100.00;93120.47;2089325;28;20029;-81
2022/04/18 01:45:18;;;;;;;3.28;2.90;;;;;;;-0.98;100.00;93117.75;2105674;28;20031;-79
2022/04/18 01:46:19;;;;;;;4.30;2.80;;;;;;;-1.03;100.00;93116.16;2089572;28;20025;-82
2022/04/18 01:47:20;;;;;;;4.03;3.00;;;;;;;-1.01;100.00;93115.81;2097772;28;20029;-81
2022/04/18 01:48:27;;;;;;;4.90;3.45;;;;;;;-1.07;100.00;93120.56;2106064;28;20031;-79
2022/04/18 01:49:28;;;;;;;3.72;3.13;;;;;;;-1.10;100.00;93110.78;2089665;28;20025;-81
2022/04/18 01:50:29;;;;;;;3.97;3.13;;;;;;;-1.11;100.00;93114.50;2080824;28;20032;-81
2022/04/18 01:51:30;;;;;;;3.05;2.60;;;;;;;-1.15;100.00;93116.28;2089301;28;20033;-80
2022/04/18 01:52:31;;;;;;;6.22;2.90;;;;;;;-1.09;100.00;93112.31;2089262;28;20020;-79
2022/04/18 01:53:32;;;;;;;3.50;3.10;;;;;;;-1.06;100.00;93106.34;2089196;28;20021;-79
2022/04/18 01:54:33;;;;;;;5.65;2.58;;;;;;;-1.03;100.00;93110.94;2089389;28;20036;-80
2022/04/18 01:55:34;;;;;;;2.95;2.75;;;;;;;-1.17;100.00;93108.00;2089363;28;20029;-80
2022/04/18 01:56:35;;;;;;;8.98;3.28;;;;;;;-1.17;100.00;93113.25;2097398;28;20051;-82
2022/04/18 01:57:36;;;;;;;4.22;3.08;;;;;;;-1.21;100.00;93109.78;2097521;28;20029;-79
2022/04/18 01:58:37;;;;;;;3.10;2.80;;;;;;;-1.10;100.00;93104.75;2106015;28;20115;-80
2022/04/18 01:59:39;;;;;;;3.25;2.85;;;;;;;-1.11;100.00;93105.88;2097556;28;20028;-81
2022/04/18 02:00:40;;;;;;;5.95;3.03;;;;;;;-1.13;100.00;93106.22;2105878;28;20028;-81
2022/04/18 02:01:41;;;;;;;3.45;2.70;;;;;;;-1.14;100.00;93106.53;2088778;28;20470;-80
2022/04/18 02:02:42;;;;;;;3.35;2.72;;;;;;;-1.10;100.00;93108.16;2097443;28;20032;-82
2022/04/18 02:03:44;;;;;;;5.38;3.40;;;;;;;-1.17;100.00;93115.88;2105442;28;20024;-81
2022/04/18 02:04:44;;;;;;;3.78;3.00;;;;;;;-1.13;100.00;93105.47;2097588;28;20031;-81
2022/04/18 02:05:47;;;;;;;3.65;3.10;;;;;;;-1.17;100.00;93100.13;2097483;28;20032;-80
2022/04/18 02:06:48;;;;;;;4.30;2.80;;;;;;;-1.22;100.00;93105.66;2097953;28;20059;-79
2022/04/18 02:07:49;;;;;;;4.43;2.75;;;;;;;-1.22;100.00;93100.41;2105952;28;20046;-81
2022/04/18 02:08:50;;;;;;;5.22;2.90;;;;;;;-1.31;100.00;93102.44;2097593;28;20066;-80
2022/04/18 02:09:51;;;;;;;3.08;2.65;;;;;;;-1.27;100.00;93098.81;2089485;28;20070;-81
2022/04/18 02:12:44;;;;;;;;;;;;;;;-1.31;100.00;93100.59;2148855;27;20109;-79
2022/04/18 02:13:44;;;;;;;3.90;2.42;;;;;;;-1.15;100.00;93091.91;2129477;27;19993;-80
2022/04/18 02:14:45;;;;;;;6.00;3.00;;;;;;;-1.23;100.00;93095.47;2121810;27;20083;-80
2022/04/18 02:15:46;;;;;;;2.92;2.63;;;;;;;-1.34;100.00;93098.63;2121596;28;20030;-79
2022/04/18 02:16:47;;;;;;;3.15;2.80;;;;;;;-1.31;100.00;93097.22;2121719;27;20034;-81
2022/04/18 02:17:48;;;;;;;2.65;2.45;;;;;;;-1.30;100.00;93099.47;2130074;27;20022;-82
2022/04/18 02:18:49;;;;;;;3.15;2.90;;;;;;;-1.29;100.00;93100.22;2130179;27;20019;-81
2022/04/18 02:19:50;;;;;;;3.33;3.03;;;;;;;-1.32;100.00;93093.03;2121665;28;20020;-78
2022/04/18 02:20:51;;;;;;;3.78;3.03;;;;;;;-1.26;100.00;93086.44;2113272;28;20020;-79
2022/04/18 02:21:52;;;;;;;3.88;3.47;;;;;;;-1.32;100.00;93098.28;2130252;27;20027;-80
2022/04/18 02:22:54;;;;;;;4.57;2.97;;;;;;;-1.35;100.00;93091.88;2121674;28;20027;-80
2022/04/18 02:23:55;;;;;;;3.47;3.05;;;;;;;-1.45;100.00;93099.50;2130413;27;20018;-81
2022/04/18 02:25:00;;;;;;;4.93;3.47;;;;;;;-1.32;100.00;93093.81;2121640;27;20031;-80
2022/04/18 02:26:01;;;;;;;3.17;2.88;;;;;;;-1.30;100.00;93094.22;2112413;28;20539;-80
2022/04/18 02:27:03;;;;;;;5.05;3.33;;;;;;;-1.28;100.00;93091.25;2121732;27;20043;-81
2022/04/18 02:28:04;;;;;;;3.75;3.00;;;;;;;-1.40;100.00;93086.91;2113008;28;20069;-81
2022/04/18 02:29:07;;;;;;;3.83;2.60;;;;;;;-1.27;100.00;93098.06;2104916;28;20111;-80
2022/04/18 02:30:09;;;;;;;4.28;2.90;;;;;;;-1.40;100.00;93089.53;2105250;28;20036;-82
2022/04/18 02:31:10;;;;;;;3.60;2.53;;;;;;;-1.51;100.00;93088.50;2105014;28;20112;-79
2022/04/18 02:33:30;;;;;;;3.30;2.92;;;;;;;-1.54;100.00;93094.44;2126712;27;20022;-80
2022/04/18 02:34:31;;;;;;;4.00;2.50;;;;;;;-1.38;100.00;93089.19;2121414;28;20045;-81
2022/04/18 02:35:32;;;;;;;4.45;2.92;;;;;;;-1.43;100.00;93092.06;2113001;28;20421;-79
2022/04/18 02:36:33;;;;;;;5.85;2.97;;;;;;;-1.57;100.00;93093.25;2112908;28;20020;-79
2022/04/18 02:37:34;;;;;;;3.10;2.67;;;;;;;-1.64;100.00;93090.47;2104193;28;20047;-82
2022/04/18 02:38:35;;;;;;;5.20;2.70;;;;;;;-1.48;100.00;93087.09;2112764;27;20115;-82
2022/04/18 02:39:37;;;;;;;4.25;2.70;;;;;;;-1.39;100.00;93090.28;2112860;28;20020;-80
2022/04/18 02:40:38;;;;;;;2.92;2.65;;;;;;;-1.50;100.00;93089.28;2104707;28;20024;-81
2022/04/18 02:41:39;;;;;;;4.10;3.10;;;;;;;-1.59;100.00;93090.19;2104593;28;20024;-83
2022/04/18 02:42:42;;;;;;;4.82;2.65;;;;;;;-1.61;100.00;93092.41;2113059;28;20030;-81
2022/04/18 02:43:43;;;;;;;3.63;2.75;;;;;;;-1.56;100.00;93092.16;2121266;28;20031;-80
2022/04/18 02:44:45;;;;;;;3.85;2.88;;;;;;;-1.49;100.00;93090.78;2113034;27;20530;-81
2022/04/18 02:45:46;;;;;;;3.42;2.95;;;;;;;-1.49;100.00;93085.53;2121703;27;20069;-82
2022/04/18 02:46:47;;;;;;;3.20;2.72;;;;;;;-1.48;100.00;93084.47;2121282;28;20549;-80
2022/04/18 02:47:48;;;;;;;4.32;2.83;;;;;;;-1.48;100.00;93081.84;2113030;28;20028;-81
2022/04/18 02:48:52;;;;;;;3.17;2.63;;;;;;;-1.47;100.00;93089.34;2113001;28;20023;-81
2022/04/18 02:50:03;;;;;;;3.60;3.13;;;;;;;-1.58;100.00;93096.19;2112525;28;20028;-79
2022/04/18 02:51:04;;;;;;;4.35;2.88;;;;;;;-1.60;100.00;93096.56;2114136;28;20022;-80
2022/04/18 02:52:05;;;;;;;4.72;2.80;;;;;;;-1.66;100.00;93089.28;2104336;28;20020;-79
2022/04/18 02:53:06;;;;;;;3.33;2.80;;;;;;;-1.60;100.00;93088.69;2112797;28;20016;-78
2022/04/18 02:54:07;;;;;;;3.72;2.90;;;;;;;-1.34;100.00;93082.16;2121087;27;20048;-79
2022/04/18 02:55:11;;;;;;;3.88;3.08;;;;;;;-1.45;100.00;93089.75;2123839;27;20019;-80
2022/04/18 02:56:12;;;;;;;4.50;2.80;;;;;;;-1.49;100.00;93085.53;2121896;27;20024;-81
2022/04/18 02:57:13;;;;;;;4.00;3.42;;;;;;;-1.41;100.00;93092.47;2121263;28;20027;-79
2022/04/18 02:58:14;;;;;;;3.45;2.63;;;;;;;-1.52;100.00;93079.13;2121119;28;20023;-78
2022/04/18 02:59:15;;;;;;;3.83;3.08;;;;;;;-1.66;100.00;93081.44;2112580;28;20053;-79
2022/04/18 03:00:16;;;;;;;3.17;2.53;;;;;;;-1.56;100.00;93079.03;2112683;28;20051;-79
2022/04/18 03:01:17;;;;;;;4.93;3.17;;;;;;;-1.61;100.00;93076.69;2129598;27;20023;-80
2022/04/18 03:02:18;;;;;;;3.67;3.03;;;;;;;-1.65;100.00;93080.34;2120477;28;20451;-80
2022/04/18 03:03:19;;;;;;;3.30;3.00;;;;;;;-1.68;100.00;93084.38;2112750;28;20028;-79
2022/04/18 03:04:20;;;;;;;3.50;2.65;;;;;;;-1.68;100.00;93075.75;2104279;28;20024;-80
2022/04/18 03:05:21;;;;;;;3.25;2.67;;;;;;;-1.58;100.00;93073.41;2113015;27;20031;-80
2022/04/18 03:06:22;;;;;;;4.50;3.65;;;;;;;-1.59;100.00;93071.09;2121096;28;20050;-80
2022/04/18 03:07:23;;;;;;;3.95;2.90;;;;;;;-1.72;100.00;93083.53;2112827;28;20023;-81
2022/04/18 03:08:24;;;;;;;3.30;3.00;;;;;;;-1.69;100.00;93074.25;2112437;28;20031;-80
2022/04/18 03:09:25;;;;;;;5.65;3.10;;;;;;;-1.57;100.00;93077.53;2104009;28;20017;-80
2022/04/18 03:11:46;;;;;;;3.42;2.50;;;;;;;-1.75;100.00;93078.22;2114827;28;20081;-81
2022/04/18 03:12:47;;;;;;;4.32;3.38;;;;;;;-1.72;100.00;93083.53;2120691;28;20419;-80
2022/04/18 03:13:48;;;;;;;3.60;2.40;;;;;;;-1.71;100.00;93081.66;2120044;27;20020;-80
2022/04/18 03:14:49;;;;;;;3.53;2.92;;;;;;;-1.65;100.00;93077.72;2129456;27;20054;-80
2022/04/18 03:15:50;;;;;;;4.72;2.95;;;;;;;-1.78;100.00;93071.81;2129459;27;20023;-80
2022/04/18 03:16:51;;;;;;;8.50;2.97;;;;;;;-1.71;100.00;93073.81;2104008;28;20413;-80
2022/04/18 03:17:52;;;;;;;3.33;3.03;;;;;;;-1.61;100.00;93071.44;2100030;28;20082;-81
2022/04/18 03:18:53;;;;;;;3.05;2.65;;;;;;;-1.63;100.00;93076.25;2112654;27;20046;-80
2022/04/18 03:19:54;;;;;;;4.47;2.70;;;;;;;-1.46;100.00;93074.38;2112417;28;20106;-79
2022/04/18 03:20:55;;;;;;;3.92;2.72;;;;;;;-1.59;100.00;93064.00;2112248;28;20516;-81
2022/04/18 03:21:56;;;;;;;4.47;2.97;;;;;;;-1.65;100.00;93067.97;2111808;28;20028;-80
2022/04/18 03:22:57;;;;;;;3.25;2.70;;;;;;;-1.86;100.00;93070.09;2111623;28;20024;-79
2022/04/18 03:23:58;;;;;;;4.82;2.80;;;;;;;-1.77;100.00;93073.31;2110760;28;20480;-79
2022/04/18 03:24:59;;;;;;;5.35;2.60;;;;;;;-1.84;100.00;93071.31;2105814;28;20106;-79
2022/04/18 03:26:00;;;;;;;2.78;2.47;;;;;;;-1.66;100.00;93069.09;2104631;28;20504;-79
2022/04/18 03:27:02;;;;;;;4.32;2.90;;;;;;;-1.78;100.00;93074.41;2105900;28;20042;-80
2022/04/18 03:28:04;;;;;;;2.45;2.25;;;;;;;-1.87;100.00;93074.59;2122534;27;20026;-80
2022/04/18 03:29:05;;;;;;;5.47;3.08;;;;;;;-1.89;100.00;93068.94;2114716;28;20465;-79
2022/04/18 03:30:06;;;;;;;3.75;2.92;;;;;;;-1.84;100.00;93075.78;2106758;28;20085;-80
2022/04/18 03:31:07;;;;;;;3.25;2.95;;;;;;;-1.87;100.00;93071.22;2098596;28;20697;-79
2022/04/18 03:32:08;;;;;;;3.17;2.78;;;;;;;-1.77;100.00;93073.31;2098561;28;20028;-81
2022/04/18 03:33:09;;;;;;;3.55;3.10;;;;;;;-1.85;100.00;93072.38;2098431;28;20420;-80
2022/04/18 03:34:10;;;;;;;3.05;2.75;;;;;;;-1.83;100.00;93072.81;2098519;28;20071;-81
2022/04/18 03:35:11;;;;;;;4.05;2.63;;;;;;;-1.77;100.00;93070.69;2106980;28;20027;-81
2022/04/18 03:40:11;;;;;;;3.08;2.40;;;;;;;-1.84;100.00;93066.06;2115414;28;20043;-80
2022/04/18 03:41:12;;;;;;;3.80;2.65;;;;;;;-1.71;100.00;93066.72;2122568;27;20080;-80
2022/04/18 03:42:31;;;;;;;3.17;2.88;;;;;;;-1.80;100.00;93061.66;2106824;28;20495;-80
2022/04/18 03:43:32;;;;;;;2.88;2.60;;;;;;;-1.82;100.00;93063.09;2111804;27;20057;-80
2022/04/18 03:44:33;;;;;;;3.28;2.97;;;;;;;-1.83;100.00;93070.19;2123834;27;20049;-80
2022/04/18 03:45:34;;;;;;;2.90;2.65;;;;;;;-1.81;100.00;93067.22;2123705;27;20023;-79
2022/04/18 03:46:35;;;;;;;2.75;2.53;;;;;;;-1.77;100.00;93068.81;2106671;28;20027;-79
2022/04/18 03:47:36;;;;;;;5.03;2.95;;;;;;;-1.77;100.00;93066.22;2106779;28;20047;-80
2022/04/18 03:48:37;;;;;;;5.22;2.90;;;;;;;-1.59;100.00;93071.09;2115095;28;20027;-80
2022/04/18 03:49:39;;;;;;;3.45;2.80;;;;;;;-1.50;100.00;93069.06;2106267;28;20035;-81
2022/04/18 03:50:41;;;;;;;4.85;3.03;;;;;;;-1.80;100.00;93066.13;2098382;28;20065;-82
2022/04/18 03:51:41;;;;;;;3.03;2.72;;;;;;;-1.87;100.00;93068.59;2098591;28;20517;-79
2022/04/18 03:52:42;;;;;;;5.20;2.92;;;;;;;-1.98;100.00;93065.69;2106754;27;20024;-82
2022/04/18 03:53:43;;;;;;;3.03;2.72;;;;;;;-2.00;100.00;93059.28;2106674;28;20425;-79
2022/04/18 03:54:46;;;;;;;4.22;3.15;;;;;;;-1.96;100.00;93063.53;2106833;28;20052;-79
2022/04/18 03:55:47;;;;;;;4.20;3.00;;;;;;;-1.93;100.00;93067.31;2115230;27;20050;-80
2022/04/18 03:56:48;;;;;;;3.08;2.38;;;;;;;-1.87;100.00;93058.88;2114716;28;20077;-80
2022/04/18 03:57:49;;;;;;;2.85;2.65;;;;;;;-1.92;100.00;93066.22;2119483;27;20103;-78
2022/04/18 03:58:50;;;;;;;3.55;2.70;;;;;;;-2.00;100.00;93061.91;2119267;27;20494;-82
2022/04/18 03:59:51;;;;;;;3.95;3.05;;;;;;;-1.98;100.00;93064.94;2106677;28;20027;-81
2022/04/18 04:00:52;;;;;;;4.13;2.70;;;;;;;-1.96;100.00;93063.53;2106761;28;20472;-78
2022/04/18 04:01:53;;;;;;;3.17;2.50;;;;;;;-2.07;100.00;93057.25;2114487;28;20047;-78
2022/04/18 04:03:01;;;;;;;3.22;2.75;;;;;;;-1.97;100.00;93063.88;2115226;28;20685;-81
2022/04/18 04:04:03;;;;;;;5.47;2.80;;;;;;;-1.93;100.00;93056.81;2115031;28;20388;-77
2022/04/18 04:05:04;;;;;;;3.70;2.53;;;;;;;-1.88;100.00;93053.97;2121323;27;20030;-81
2022/04/18 04:06:05;;;;;;;5.35;2.90;;;;;;;-1.87;100.00;93055.50;2106663;28;20027;-79
2022/04/18 04:07:06;;;;;;;3.50;2.65;;;;;;;-1.90;100.00;93050.91;2098342;28;20430;-81
2022/04/18 04:08:07;;;;;;;3.55;2.40;;;;;;;-1.90;100.00;93050.91;2098377;28;20024;-80
2022/04/18 04:09:08;;;;;;;3.05;2.75;;;;;;;-2.00;100.00;93052.19;2106989;28;20389;-80
2022/04/18 04:10:09;;;;;;;4.18;3.13;;;;;;;-1.98;100.00;93057.09;2106597;28;20078;-79
2022/04/18 04:11:11;;;;;;;4.32;2.90;;;;;;;-1.91;100.00;93060.66;2115083;28;20069;-82
2022/04/18 04:12:12;;;;;;;3.30;3.00;;;;;;;-1.90;100.00;93056.91;2114638;27;20040;-80
2022/04/18 04:13:12;;;;;;;4.93;2.95;;;;;;;-1.93;100.00;93059.44;2114919;28;20066;-78
2022/04/18 04:14:13;;;;;;;4.65;2.95;;;;;;;-1.78;100.00;93059.47;2114410;28;20488;-81
2022/04/18 04:15:14;;;;;;;3.67;2.97;;;;;;;-1.96;100.00;93055.66;2118500;27;20075;-81
2022/04/18 04:16:15;;;;;;;5.10;3.15;;;;;;;-1.96;100.00;93057.53;2114997;28;20016;-79
2022/04/18 04:17:16;;;;;;;4.75;3.28;;;;;;;-1.86;100.00;93063.00;2115110;28;20022;-81
2022/04/18 04:18:17;;;;;;;3.78;2.80;;;;;;;-1.95;100.00;93059.03;2114961;28;20054;-79
2022/04/18 04:19:18;;;;;;;3.15;2.83;;;;;;;-1.99;100.00;93060.81;2123314;27;20027;-78
2022/04/18 04:20:22;;;;;;;3.30;3.00;;;;;;;-2.07;100.00;93067.72;2123584;27;20019;-79
2022/04/18 04:21:23;;;;;;;3.47;3.08;;;;;;;-1.95;100.00;93069.50;2115331;28;20070;-80
2022/04/18 04:22:24;;;;;;;4.22;2.90;;;;;;;-2.10;100.00;93063.19;2115072;27;20081;-79
2022/04/18 04:23:25;;;;;;;4.90;3.63;;;;;;;-2.03;100.00;93068.56;2114977;28;20472;-78
2022/04/18 04:24:26;;;;;;;3.60;3.00;;;;;;;-2.07;100.00;93062.50;2115204;28;20015;-79
2022/04/18 04:25:27;;;;;;;4.45;3.20;;;;;;;-2.07;100.00;93071.09;2114493;28;20020;-80
2022/04/18 04:26:31;;;;;;;3.50;3.00;;;;;;;-2.17;100.00;93073.47;2114781;27;20089;-81
2022/04/18 04:27:34;;;;;;;3.60;3.22;;;;;;;-2.31;100.00;93073.88;2107270;28;20464;-78
2022/04/18 04:28:35;;;;;;;3.35;3.05;;;;;;;-2.03;100.00;93061.47;2098402;28;20027;-79
2022/04/18 04:29:36;;;;;;;3.30;3.00;;;;;;;-2.19;100.00;93071.19;2115046;28;20083;-79
2022/04/18 04:30:41;;;;;;;4.85;2.97;;;;;;;-2.16;100.00;93064.50;2115024;28;20488;-80
2022/04/18 04:31:42;;;;;;;3.92;3.10;;;;;;;-2.16;100.00;93060.03;2098850;28;20028;-80
2022/04/18 04:32:43;;;;;;;7.82;3.03;;;;;;;-2.29;100.00;93061.19;2101141;28;20031;-80
2022/04/18 04:33:44;;;;;;;3.80;2.95;;;;;;;-2.28;100.00;93057.50;2098043;28;20021;-81
2022/04/18 04:34:45;;;;;;;3.47;3.17;;;;;;;-2.32;100.00;93060.03;2098187;28;20040;-81
2022/04/18 04:35:46;;;;;;;4.65;3.00;;;;;;;-2.33;100.00;93060.34;2105542;28;20487;-80
2022/04/18 04:36:47;;;;;;;5.20;3.42;;;;;;;-2.23;100.00;93059.88;2106216;28;20128;-81
2022/04/18 04:37:48;;;;;;;3.33;3.03;;;;;;;-2.27;100.00;93064.25;2105551;28;20027;-81
2022/04/18 04:38:49;;;;;;;4.28;3.35;;;;;;;-2.23;100.00;93057.25;2105858;28;20020;-81
2022/04/18 04:39:50;;;;;;;4.05;3.20;;;;;;;-2.21;100.00;93060.28;2110109;28;20023;-82
2022/04/18 04:40:53;;;;;;;3.10;2.80;;;;;;;-2.19;100.00;93058.09;2114083;28;20469;-81
2022/04/18 04:41:53;;;;;;;3.33;3.03;;;;;;;-2.24;100.00;93060.94;2109633;28;20024;-80
2022/04/18 04:42:54;;;;;;;3.30;2.80;;;;;;;-2.03;100.00;93069.34;2106212;28;20031;-83
2022/04/18 04:43:56;;;;;;;3.97;3.15;;;;;;;-1.87;100.00;93064.09;2106312;28;20703;-79
2022/04/18 04:44:57;;;;;;;4.95;3.30;;;;;;;-2.05;100.00;93057.69;2106462;28;20024;-79
2022/04/18 04:46:01;;;;;;;3.50;3.15;;;;;;;-2.14;100.00;93064.94;2106360;28;20028;-79
2022/04/18 04:47:04;;;;;;;4.30;3.50;;;;;;;-2.21;100.00;93059.53;2114811;28;20500;-81
2022/04/18 04:48:05;;;;;;;4.28;3.47;;;;;;;-2.16;100.00;93054.78;2106251;28;20020;-79
2022/04/18 04:49:07;;;;;;;4.90;3.03;;;;;;;-2.16;100.00;93061.91;2090045;28;20025;-80
2022/04/18 04:50:08;;;;;;;3.72;3.42;;;;;;;-2.20;100.00;93061.03;2097242;28;20497;-80
2022/04/18 04:51:09;;;;;;;4.32;3.30;;;;;;;-2.15;100.00;93060.78;2106218;28;20023;-80
2022/04/18 04:52:10;;;;;;;3.80;3.35;;;;;;;-2.16;100.00;93059.28;2097952;28;20027;-80
2022/04/18 04:53:11;;;;;;;6.20;3.58;;;;;;;-2.19;100.00;93060.72;2097848;28;20568;-79
2022/04/18 04:54:12;;;;;;;3.92;3.33;;;;;;;-2.21;100.00;93065.53;2089661;28;20049;-80
2022/04/18 04:55:13;;;;;;;4.72;3.58;;;;;;;-2.17;100.00;93063.75;2106282;28;20056;-80
2022/04/18 04:56:14;;;;;;;3.47;3.17;;;;;;;-2.21;100.00;93057.66;2114751;28;20019;-79
2022/04/18 04:57:16;;;;;;;4.25;3.30;;;;;;;-2.15;100.00;93069.44;2114795;27;20062;-81
2022/04/18 04:58:17;;;;;;;4.28;3.40;;;;;;;-2.14;100.00;93064.94;2114774;28;20023;-81
2022/04/18 04:59:18;;;;;;;3.78;3.38;;;;;;;-2.13;100.00;93063.84;2106480;28;20024;-79